DLH16PY EDDF-LIMC
Flight info
| Callsign | DLH16PY |
|---|---|
| Flight time | N/A |
| Altitude | 31000 |
| Route | ANEKI2L/18 ANEKI Y163 HERBI/N0453F330 Y163 NATOR DCT DITON DCT BASGO Z424 RIXUV |
| Aircraft | A20N/M-SDE2E3FGHIRWXY/LB1 |
Departure
| Time | 2026-05-05 16:04 |
|---|---|
| Airport | Frankfurt Main Airport (EDDF) |
Arrival
| Time | N/A |
|---|---|
| Airport | Milan Malpensa International Airport (LIMC) |
| Time | Latitude | Longitude | Altitude | Speed | Heading |
|---|---|---|---|---|---|
| 2026-05-05 15:32 | 50.04707 | 8.56252 | 359 ft | 0 kts | 340° |
| 2026-05-05 15:52 | 50.04701 | 8.56256 | 359 ft | 2 kts | 347° |
| 2026-05-05 15:52 | 50.04686 | 8.56261 | 359 ft | 2 kts | 345° |
| 2026-05-05 15:52 | 50.04671 | 8.56267 | 359 ft | 2 kts | 346° |
| 2026-05-05 15:53 | 50.04660 | 8.56271 | 359 ft | 0 kts | 346° |
| 2026-05-05 15:53 | 50.04655 | 8.56273 | 359 ft | 0 kts | 307° |
| 2026-05-05 15:53 | 50.04653 | 8.56280 | 359 ft | 0 kts | 257° |
| 2026-05-05 15:53 | 50.04656 | 8.56287 | 359 ft | 1 kts | 247° |
| 2026-05-05 15:54 | 50.04657 | 8.56291 | 358 ft | 0 kts | 249° |
| 2026-05-05 15:55 | 50.04646 | 8.56252 | 358 ft | 3 kts | 245° |
| 2026-05-05 15:56 | 50.04646 | 8.56251 | 358 ft | 0 kts | 245° |
| 2026-05-05 15:56 | 50.04649 | 8.56261 | 358 ft | 1 kts | 246° |
| 2026-05-05 15:56 | 50.04650 | 8.56265 | 358 ft | 0 kts | 246° |
| 2026-05-05 15:57 | 50.04649 | 8.56262 | 358 ft | 1 kts | 251° |
| 2026-05-05 15:57 | 50.04634 | 8.56198 | 358 ft | 10 kts | 250° |
| 2026-05-05 15:57 | 50.04603 | 8.56064 | 357 ft | 13 kts | 250° |
| 2026-05-05 15:57 | 50.04544 | 8.55965 | 357 ft | 13 kts | 199° |
| 2026-05-05 15:58 | 50.04457 | 8.55924 | 356 ft | 13 kts | 197° |
| 2026-05-05 15:58 | 50.04368 | 8.55915 | 356 ft | 12 kts | 166° |
| 2026-05-05 15:58 | 50.04287 | 8.55963 | 355 ft | 9 kts | 160° |
| 2026-05-05 15:58 | 50.04234 | 8.55912 | 354 ft | 9 kts | 244° |
| 2026-05-05 15:59 | 50.04209 | 8.55811 | 354 ft | 10 kts | 249° |
| 2026-05-05 15:59 | 50.04179 | 8.55683 | 353 ft | 14 kts | 251° |
| 2026-05-05 15:59 | 50.04151 | 8.55567 | 352 ft | 8 kts | 249° |
| 2026-05-05 15:59 | 50.04121 | 8.55440 | 352 ft | 16 kts | 249° |
| 2026-05-05 16:00 | 50.04073 | 8.55246 | 351 ft | 19 kts | 250° |
| 2026-05-05 16:00 | 50.04026 | 8.55050 | 350 ft | 20 kts | 249° |
| 2026-05-05 16:00 | 50.03971 | 8.54815 | 349 ft | 23 kts | 250° |
| 2026-05-05 16:00 | 50.03928 | 8.54646 | 348 ft | 11 kts | 250° |
| 2026-05-05 16:01 | 50.03916 | 8.54591 | 348 ft | 10 kts | 251° |
| 2026-05-05 16:01 | 50.03884 | 8.54458 | 347 ft | 6 kts | 250° |
| 2026-05-05 16:01 | 50.03852 | 8.54350 | 346 ft | 15 kts | 236° |
| 2026-05-05 16:01 | 50.03788 | 8.54171 | 345 ft | 22 kts | 247° |
| 2026-05-05 16:02 | 50.03739 | 8.53971 | 344 ft | 19 kts | 250° |
| 2026-05-05 16:02 | 50.03683 | 8.53728 | 343 ft | 27 kts | 250° |
| 2026-05-05 16:02 | 50.03606 | 8.53416 | 341 ft | 33 kts | 249° |
| 2026-05-05 16:02 | 50.03516 | 8.53050 | 340 ft | 38 kts | 249° |
| 2026-05-05 16:03 | 50.03424 | 8.52681 | 338 ft | 23 kts | 249° |
| 2026-05-05 16:03 | 50.03343 | 8.52591 | 337 ft | 10 kts | 181° |
| 2026-05-05 16:03 | 50.03265 | 8.52593 | 337 ft | 11 kts | 179° |
| 2026-05-05 16:03 | 50.03180 | 8.52594 | 337 ft | 12 kts | 180° |
| 2026-05-05 16:04 | 50.02889 | 8.52587 | 336 ft | 81 kts | 182° |
| 2026-05-05 16:04 | 50.02063 | 8.52605 | 334 ft | 150 kts | 180° |
| 2026-05-05 16:04 | 50.00916 | 8.52637 | 759 ft | 171 kts | 178° |
| 2026-05-05 16:04 | 49.99745 | 8.52801 | 1498 ft | 175 kts | 180° |
| 2026-05-05 16:05 | 49.98541 | 8.52900 | 2303 ft | 177 kts | 181° |
| 2026-05-05 16:05 | 49.97293 | 8.52973 | 2822 ft | 190 kts | 181° |
| 2026-05-05 16:05 | 49.95913 | 8.53050 | 3321 ft | 207 kts | 181° |
| 2026-05-05 16:05 | 49.94410 | 8.53141 | 3776 ft | 225 kts | 180° |
| 2026-05-05 16:06 | 49.92800 | 8.53244 | 4139 ft | 242 kts | 180° |
| 2026-05-05 16:06 | 49.91143 | 8.53356 | 5174 ft | 237 kts | 180° |
| 2026-05-05 16:06 | 49.89595 | 8.53462 | 6109 ft | 235 kts | 180° |
| 2026-05-05 16:06 | 49.87973 | 8.53570 | 7020 ft | 236 kts | 180° |
| 2026-05-05 16:07 | 49.86350 | 8.53676 | 7880 ft | 238 kts | 180° |
| 2026-05-05 16:07 | 49.84712 | 8.53784 | 8708 ft | 240 kts | 180° |
| 2026-05-05 16:07 | 49.83040 | 8.53894 | 9508 ft | 243 kts | 179° |
| 2026-05-05 16:07 | 49.81371 | 8.54004 | 10296 ft | 245 kts | 179° |
| 2026-05-05 16:08 | 49.79665 | 8.54116 | 11068 ft | 247 kts | 179° |
| 2026-05-05 16:08 | 49.77943 | 8.54145 | 11842 ft | 249 kts | 184° |
| 2026-05-05 16:08 | 49.76215 | 8.53970 | 12375 ft | 260 kts | 186° |
| 2026-05-05 16:08 | 49.74347 | 8.53726 | 12767 ft | 277 kts | 186° |
| 2026-05-05 16:09 | 49.72379 | 8.53464 | 13120 ft | 295 kts | 186° |
| 2026-05-05 16:09 | 49.70983 | 8.53279 | 13350 ft | 307 kts | 186° |
| 2026-05-05 16:09 | 49.68064 | 8.52892 | 13749 ft | 330 kts | 186° |
| 2026-05-05 16:09 | 49.65699 | 8.52579 | 14051 ft | 347 kts | 186° |